This is the latest recevied weather packets stored in our database for station/object N4OGP-WX. If no packets are shown the sender has not sent any weather packets the latest 10 day(s).
| Time | Temp. | Humidity | Pressure | Rain* | Wind** | Luminosity | Snow |
|---|---|---|---|---|---|---|---|
| 1777602980 | 23.33° C | 79% | 1010.2 hPa | 0 mm | - | - | - |
| 1777602920 | 23.33° C | 79% | 1010.2 hPa | 0 mm | - | - | - |
| 1777602860 | 23.33° C | 79% | 1010.2 hPa | 0 mm | - | - | - |
| 1777602800 | 23.33° C | 78% | 1010.2 hPa | 0 mm | - | - | - |
| 1777602740 | 23.33° C | 78% | 1010.2 hPa | 0 mm | - | - | - |
| 1777602680 | 23.33° C | 78% | 1010.2 hPa | 0 mm | - | - | - |
| 1777602620 | 23.89° C | 42% | 1020.4 hPa | 0 mm | - | - | - |
| 1777602530 | 23.89° C | 42% | 1020.4 hPa | 0 mm | - | - | - |
| 1777602470 | 23.89° C | 42% | 1020.4 hPa | 0 mm | - | - | - |
| 1777602380 | 23.33° C | 78% | 1010.1 hPa | 0 mm | - | - | - |
| 1777602320 | 23.33° C | 78% | 1010.1 hPa | 0 mm | - | - | - |
| 1777602230 | 23.33° C | 79% | 1010.1 hPa | 0 mm | - | - | - |
| 1777602170 | 23.33° C | 79% | 1010 hPa | 0 mm | - | - | - |
| 1777602110 | 23.89° C | 42% | 1020.4 hPa | 0 mm | - | - | - |
| 1777602050 | 23.33° C | 79% | 1010 hPa | 0 mm | - | - | - |
| 1777601960 | 23.89° C | 42% | 1020.4 hPa | 0 mm | - | - | - |
| 1777601900 | 23.33° C | 79% | 1010 hPa | 0 mm | - | - | - |
| 1777601840 | 23.89° C | 42% | 1020.4 hPa | 0 mm | - | - | - |
| 1777601780 | 23.33° C | 79% | 1009.9 hPa | 0 mm | - | - | - |
| 1777601690 | 23.89° C | 42% | 1020.4 hPa | 0 mm | - | - | - |
| 1777601630 | 23.89° C | 42% | 1020.4 hPa | 0 mm | - | - | - |
| 1777601570 | 23.89° C | 42% | 1020.4 hPa | 0 mm | - | - | - |
| 1777601510 | 23.33° C | 79% | 1009.8 hPa | 0 mm | - | - | - |
| 1777601450 | 23.33° C | 79% | 1009.8 hPa | 0 mm | - | - | - |
| 1777601360 | 23.33° C | 79% | 1009.8 hPa | 0 mm | - | - | - |
* Rain latest hour (hover to see other rain measurements)
** Current wind speed in m/s (hover to see current wind gust speed)